Home > Products > Valid Products > TAF

000
FTUS46 KHNX 292300
TAFMCE
TAF
KMCE 292320Z 3000/3024 34011KT P6SM SCT130 BKN200
     FM300600 27007KT P6SM SCT120
     FM301700 33008KT P6SM SKC=



000
FTUS46 KHNX 292300
TAFFAT
TAF
KFAT 292320Z 3000/3024 VRB06KT P6SM SCT130 BKN200
     FM300100 30008KT P6SM FEW120 BKN200
     FM300700 VRB04KT P6SM SCT120
     FM301600 17006KT P6SM SCT200=



000
FTUS46 KHNX 292300
TAFBFL
TAF
KBFL 292320Z 3000/3024 31009KT P6SM OVC200
     FM300300 34005KT P6SM BKN200
     FM301200 13004KT P6SM SCT200
     FM302100 31008KT P6SM SCT200=



000
FTUS46 KHNX 291700
TAFBFL
TAF
KBFL 291730Z 2918/3018 VRB03KT P6SM SKC
     FM292000 31010KT P6SM BKN060 BKN200
     FM300300 34005KT P6SM SCT200
     FM301200 13004KT P6SM SKC=



000
FTUS46 KHNX 291700
TAFMCE
TAF
KMCE 291730Z 2918/3018 32006KT P6SM SKC
     FM292100 33010KT P6SM FEW060 BKN120
     FM301000 30005KT P6SM SCT120=



000
FTUS46 KHNX 291700
TAFFAT
TAF
KFAT 291730Z 2918/3018 16005KT P6SM SCT200
     FM292200 30010KT P6SM SCT060 BKN120
     FM300700 VRB04KT P6SM SCT120=



000
FTUS46 KHNX 291100
TAFFAT
TAF
KFAT 291124Z 2912/3012 VRB04KT P6SM BKN120 BKN200
     FM292200 30010KT P6SM SCT060 BKN120
     FM300700 31005KT P6SM SCT120=



000
FTUS46 KHNX 291100
TAFBFL
TAF
KBFL 291124Z 2912/3012 VRB04KT P6SM BKN120
     FM292000 31010KT P6SM BKN060 BKN200
     FM300300 34005KT P6SM SCT200=



000
FTUS46 KHNX 291100
TAFMCE
TAF
KMCE 291124Z 2912/3012 VRB04KT P6SM BKN120
     FM292100 33010KT P6SM FEW060 BKN120
     FM300400 30005KT P6SM SCT120=



000
FTUS46 KHNX 290500
TAFBFL
TAF
KBFL 290520Z 2906/3006 VRB04KT P6SM BKN120
     FM292300 33009KT P6SM BKN060 BKN200=



000
FTUS46 KHNX 290500
TAFMCE
TAF
KMCE 290520Z 2906/3006 VRB04KT P6SM BKN120
     FM292300 33008KT P6SM FEW060 BKN120=



000
FTUS46 KHNX 290500
TAFFAT
TAF
KFAT 290520Z 2906/3006 30005KT P6SM BKN120 BKN200
     FM292300 30010KT P6SM SCT060 BKN120=



000
FTUS46 KHNX 282300
TAFBFL
TAF
KBFL 282320Z 2900/2924 32010KT P6SM BKN150
     FM290300 35007KT P6SM BKN150
     FM290800 VRB04KT P6SM BKN150
     FM291800 30009KT P6SM BKN200=



000
FTUS46 KHNX 282300
TAFMCE
TAF
KMCE 282320Z 2900/2924 29007KT P6SM BKN150
     FM291200 VRB04KT P6SM BKN150
     FM291800 32008KT P6SM BKN150=



000
FTUS46 KHNX 282300
TAFFAT
TAF
KFAT 282320Z 2900/2924 31008KT P6SM BKN150
     FM290900 VRB04KT P6SM BKN150
      TEMPO 2914/2917 12006KT
     FM292200 30008KT P6SM BKN200=



000
FTUS46 KHNX 281700
TAFBFL
TAF
KBFL 281724Z 2818/2918 VRB04KT P6SM BKN150
     FM282000 30010KT P6SM BKN150
     FM290300 34007KT P6SM BKN150
     FM290800 VRB04KT P6SM BKN150=



000
FTUS46 KHNX 281700
TAFFAT
TAF
KFAT 281724Z 2818/2918 VRB05KT P6SM BKN150
     FM282300 31008KT P6SM BKN150
     FM290900 VRB04KT P6SM BKN150
      TEMPO 2914/2917 12006KT=



000
FTUS46 KHNX 281700
TAFMCE
TAF
KMCE 281724Z 2818/2918 32007KT P6SM BKN150
     FM291200 VRB04KT P6SM BKN150
     FM291700 32007KT P6SM BKN150=



000
FTUS46 KHNX 281100
TAFBFL
TAF
KBFL 281122Z 2812/2912 VRB04KT P6SM BKN150
     FM282000 30010KT P6SM BKN150
     FM290300 34007KT P6SM BKN150
     FM290800 VRB04KT P6SM BKN150=



000
FTUS46 KHNX 281100
TAFMCE
TAF
KMCE 281122Z 2812/2912 VRB04KT P6SM BKN150
     FM282000 32008KT P6SM BKN150
     FM290600 VRB04KT P6SM BKN150=



000
FTUS46 KHNX 281100
TAFFAT
TAF
KFAT 281122Z 2812/2912 VRB04KT P6SM BKN150
     FM282300 31008KT P6SM BKN150
     FM290900 VRB04KT P6SM BKN150=



000
FTUS46 KHNX 280500
TAFBFL
TAF
KBFL 280520Z 2806/2906 33012KT P6SM BKN200
     FM281200 VRB04KT P6SM BKN120 BKN200
     FM282200 34011KT P6SM BKN120 BKN200=



000
FTUS46 KHNX 280500
TAFMCE
TAF
KMCE 280520Z 2806/2906 31009KT P6SM SCT200
     FM281200 VRB04KT P6SM BKN120 BKN200
     FM282000 32010KT P6SM BKN120 BKN200=



000
FTUS46 KHNX 280500
TAFFAT
TAF
KFAT 280520Z 2806/2906 30010KT P6SM SCT200
     FM281200 VRB04KT P6SM BKN120 BKN200
     FM282200 30010KT P6SM BKN120 BKN200=



000
FTUS46 KHNX 272300
TAFMCE
TAF
KMCE 272320Z 2800/2824 34010KT P6SM BKN200
     FM280900 VRB04KT P6SM SCT150 BKN200
     FM281200 VRB04KT P6SM BKN150
     FM281900 33009KT P6SM BKN150=



000
FTUS46 KHNX 272300
TAFFAT
TAF
KFAT 272320Z 2800/2824 32010KT P6SM BKN200
     FM280900 VRB03KT P6SM SCT150 BKN200
     FM281200 VRB04KT P6SM BKN150
     FM282200 30008KT P6SM BKN150=



000
FTUS46 KHNX 272300
TAFBFL
TAF
KBFL 272320Z 2800/2824 31010KT P6SM BKN200
     FM280600 35006KT P6SM BKN150
     FM280900 VRB03KT P6SM BKN150
     FM281200 10005KT P6SM BKN120
     FM281900 30008KT P6SM SCT090 BKN150=



000
FTUS46 KHNX 271700
TAFMCE
TAF
KMCE 271731Z 2718/2818 34007KT P6SM SCT150 BKN250
     FM272100 33009KT P6SM BKN200
     FM280900 VRB04KT P6SM BKN200=



000
FTUS46 KHNX 271700
TAFFAT
TAF
KFAT 271731Z 2718/2818 VRB03KT P6SM SCT150 BKN250
     FM272300 32010KT P6SM BKN200
     FM280900 VRB03KT P6SM SCT150 BKN200=



000
FTUS46 KHNX 271700
TAFBFL
TAF
KBFL 271731Z 2718/2818 VRB03KT P6SM SCT150 BKN200
     FM272200 31010KT P6SM BKN200
     FM280600 35006KT P6SM BKN150
     FM280900 VRB03KT P6SM BKN150=



000
FTUS46 KHNX 271100
TAFFAT
TAF
KFAT 271121Z 2712/2812 VRB03KT P6SM SCT150 BKN250
     FM272300 32010KT P6SM BKN200
     FM280900 33003KT P6SM SCT150 BKN200=



000
FTUS46 KHNX 271100
TAFMCE
TAF
KMCE 271121Z 2712/2812 30004KT P6SM SCT150 BKN250
     FM272100 33009KT P6SM BKN200
     FM280900 28004KT P6SM BKN200=



000
FTUS46 KHNX 271100
TAFBFL
TAF
KBFL 271121Z 2712/2812 VRB03KT P6SM SCT150 BKN200
     FM272200 31010KT P6SM BKN200
     FM280600 35006KT P6SM BKN150=



    US Dept of Commerce
    National Oceanic and Atmospheric Administration
    National Weather Service
    1325 East West Highway
    Silver Spring, MD 20910
    Page Author: NWS Internet Services Team
Disclaimer
Information Quality
Credits
Glossary
Privacy Policy
Freedom of Information Act (FOIA)
About Us
Career Opportunities